createdAt,value
2019-03-28T00:02:30.969Z,101938.28
2019-03-28T00:07:36.087Z,101928.06
2019-03-28T00:12:38.745Z,101925.37
2019-03-28T00:17:41.328Z,101927.14
2019-03-28T00:22:50.814Z,101923.94
2019-03-28T00:27:53.521Z,101917.52
2019-03-28T00:32:56.132Z,101921.20
2019-03-28T00:37:58.779Z,101916.53
2019-03-28T00:43:01.479Z,101916.34
2019-03-28T00:48:05.355Z,101911.09
2019-03-28T00:53:08.066Z,101908.22
2019-03-28T00:58:12.133Z,101914.94
2019-03-28T01:03:14.849Z,101913.46
2019-03-28T01:08:17.602Z,101910.84
2019-03-28T01:13:20.200Z,101909.98
2019-03-28T01:18:22.819Z,101908.30
2019-03-28T01:23:25.400Z,101913.46
2019-03-28T01:28:28.011Z,101907.84
2019-03-28T01:33:30.622Z,101908.59
2019-03-28T01:38:33.252Z,101904.20
2019-03-28T01:43:35.937Z,101897.83
2019-03-28T01:48:38.549Z,101902.42
2019-03-28T01:53:41.285Z,101901.11
2019-03-28T01:58:43.897Z,101897.42
2019-03-28T02:03:47.611Z,101894.34
2019-03-28T02:08:50.254Z,101900.25
2019-03-28T02:13:52.971Z,101896.15
2019-03-28T02:18:55.568Z,101895.05
2019-03-28T02:23:58.161Z,101895.42
2019-03-28T02:29:00.762Z,101901.44
2019-03-28T02:34:03.416Z,101902.58
2019-03-28T02:39:06.132Z,101902.78
2019-03-28T02:44:08.718Z,101904.95
2019-03-28T02:49:11.442Z,101903.55
2019-03-28T02:54:14.206Z,101907.03
2019-03-28T02:59:16.820Z,101911.82
2019-03-28T03:04:19.434Z,101904.20
2019-03-28T03:09:22.145Z,101907.03
2019-03-28T03:14:24.771Z,101909.19
2019-03-28T03:19:27.403Z,101908.08
2019-03-28T03:24:30.033Z,101909.67
2019-03-28T03:29:32.660Z,101915.66
2019-03-28T03:34:35.323Z,101913.95
2019-03-28T03:39:37.913Z,101922.11
2019-03-28T03:44:42.009Z,101928.39
2019-03-28T03:49:45.012Z,101924.09
2019-03-28T03:54:47.748Z,101925.09
2019-03-28T03:59:50.442Z,101928.47
2019-03-28T04:04:56.470Z,101935.33
2019-03-28T04:09:57.648Z,101934.28
2019-03-28T04:15:02.182Z,101932.63
2019-03-28T04:20:06.776Z,101932.63
2019-03-28T04:25:09.344Z,101943.00
2019-03-28T04:30:12.260Z,101948.33
2019-03-28T04:35:14.732Z,101949.63
2019-03-28T04:40:17.287Z,101944.21
2019-03-28T04:45:19.930Z,101949.61
2019-03-28T04:50:22.491Z,101954.51
2019-03-28T04:55:25.223Z,101958.36
2019-03-28T05:00:27.846Z,101964.71
2019-03-28T05:05:30.444Z,101966.39
2019-03-28T05:10:34.230Z,101962.17
2019-03-28T05:15:36.829Z,101963.70
2019-03-28T05:20:42.647Z,101962.17
2019-03-28T05:25:45.735Z,101965.28
2019-03-28T05:30:48.362Z,101963.77
2019-03-28T05:35:50.965Z,101973.41
2019-03-28T05:40:53.612Z,101969.95
2019-03-28T05:45:56.298Z,101975.65
2019-03-28T05:50:58.944Z,101979.95
2019-03-28T05:56:01.571Z,101977.14
2019-03-28T06:01:04.213Z,101983.80
2019-03-28T06:06:13.434Z,101985.58
2019-03-28T06:11:16.099Z,101988.28
2019-03-28T06:16:19.883Z,101991.47
2019-03-28T06:21:22.497Z,102011.41
2019-03-28T06:26:25.148Z,102009.90
2019-03-28T06:31:27.721Z,102008.23
2019-03-28T06:36:30.318Z,102008.49
2019-03-28T06:41:32.908Z,102016.00
2019-03-28T06:46:35.521Z,102018.70
2019-03-28T06:51:38.148Z,102014.41
2019-03-28T06:56:40.772Z,102015.06
2019-03-28T07:01:43.392Z,102011.84
2019-03-28T07:06:46.000Z,102017.66
2019-03-28T07:11:48.674Z,102012.78
2019-03-28T07:16:51.245Z,102014.17
2019-03-28T07:21:53.894Z,102019.14
2019-03-28T07:26:56.499Z,102021.85
2019-03-28T07:31:59.132Z,102025.95
2019-03-28T07:37:01.747Z,102028.77
2019-03-28T07:42:04.511Z,102026.05
2019-03-28T07:47:07.127Z,102024.50
2019-03-28T07:52:09.812Z,102024.49
2019-03-28T07:57:12.464Z,102032.42
2019-03-28T08:02:15.076Z,102033.55
2019-03-28T08:07:17.731Z,102027.89
2019-03-28T08:12:23.318Z,102032.48
2019-03-28T08:17:27.094Z,102035.97
2019-03-28T08:22:29.975Z,102036.86
2019-03-28T08:27:32.606Z,102031.08
2019-03-28T08:32:35.667Z,102035.95
2019-03-28T08:37:39.171Z,102039.75
2019-03-28T08:42:41.753Z,102048.88
2019-03-28T08:47:51.372Z,102046.33
2019-03-28T08:52:54.000Z,102053.27
2019-03-28T08:57:56.809Z,102054.73
2019-03-28T09:02:59.364Z,102057.20
2019-03-28T09:08:01.996Z,102055.13
2019-03-28T09:13:05.919Z,102057.11
2019-03-28T09:18:08.499Z,102052.19
2019-03-28T09:23:11.255Z,102048.23
2019-03-28T09:28:14.124Z,102057.70
2019-03-28T09:33:17.319Z,102059.80
2019-03-28T09:38:19.892Z,102050.37
2019-03-28T09:43:24.541Z,102058.61
2019-03-28T09:48:27.187Z,102055.26
2019-03-28T09:53:29.848Z,102053.64
2019-03-28T09:58:32.534Z,102053.92
2019-03-28T10:03:35.125Z,102056.43
2019-03-28T10:08:37.756Z,102056.55
2019-03-28T10:13:40.359Z,102053.85
2019-03-28T10:18:42.945Z,102050.05
2019-03-28T10:23:47.396Z,102045.94
2019-03-28T10:28:50.152Z,102040.27
2019-03-28T10:33:52.822Z,102041.09
2019-03-28T10:38:55.622Z,102032.63
2019-03-28T10:43:58.283Z,102033.13
2019-03-28T10:49:00.926Z,102046.52
2019-03-28T10:54:03.551Z,102040.56
2019-03-28T10:59:06.226Z,102042.57
2019-03-28T11:04:08.944Z,102043.16
2019-03-28T11:09:11.548Z,102045.43
2019-03-28T11:14:14.239Z,102038.84
2019-03-28T11:19:17.623Z,102045.77
2019-03-28T11:24:21.557Z,102043.09
2019-03-28T11:29:24.169Z,102035.20
2019-03-28T11:34:26.757Z,102038.08
2019-03-28T11:39:29.317Z,102035.92
2019-03-28T11:44:33.803Z,102037.36
2019-03-28T11:49:36.504Z,102039.85
2019-03-28T11:54:41.270Z,102048.86
2019-03-28T11:59:43.773Z,102045.70
2019-03-28T12:04:46.403Z,102042.22
2019-03-28T12:09:49.008Z,102043.33
2019-03-28T12:14:51.636Z,102040.09
2019-03-28T12:19:54.340Z,102043.97
2019-03-28T12:24:57.000Z,102054.97
2019-03-28T12:29:59.604Z,102055.30
2019-03-28T12:35:02.306Z,102050.06
2019-03-28T12:40:06.485Z,102045.72
2019-03-28T12:45:10.307Z,102040.17
2019-03-28T12:50:14.601Z,102034.45
2019-03-28T12:55:17.193Z,102044.16
2019-03-28T13:00:32.782Z,102041.53
2019-03-28T13:05:35.439Z,102035.90
2019-03-28T13:10:38.048Z,102036.26
2019-03-28T13:15:40.703Z,102041.38
2019-03-28T13:20:43.359Z,102039.50
2019-03-28T13:25:45.943Z,102046.08
2019-03-28T13:30:48.586Z,102039.01
2019-03-28T13:35:51.216Z,102038.59
2019-03-28T13:40:54.916Z,102042.52
2019-03-28T13:45:58.807Z,102042.70
2019-03-28T13:51:01.451Z,102042.23
2019-03-28T13:56:04.070Z,102040.30
2019-03-28T14:01:06.765Z,102040.66
2019-03-28T14:06:11.464Z,102047.22
2019-03-28T14:11:15.886Z,102053.37
2019-03-28T14:16:18.476Z,102051.23
2019-03-28T14:21:21.124Z,102049.02
2019-03-28T14:26:24.629Z,102047.97
2019-03-28T14:31:27.450Z,102053.01
2019-03-28T14:36:30.066Z,102055.91
2019-03-28T14:41:32.733Z,102050.47
2019-03-28T14:46:35.450Z,102056.33
2019-03-28T14:51:38.108Z,102053.52
2019-03-28T14:56:41.719Z,102057.60
2019-03-28T15:01:44.414Z,102061.77
2019-03-28T15:06:47.058Z,102055.25
2019-03-28T15:11:49.792Z,102058.43
2019-03-28T15:16:52.484Z,102059.70
2019-03-28T15:21:55.141Z,102058.61
2019-03-28T15:26:58.034Z,102062.92
2019-03-28T15:32:00.710Z,102057.92
2019-03-28T15:37:03.508Z,102049.70
2019-03-28T15:42:06.188Z,102055.30
2019-03-28T15:47:08.867Z,102045.72
2019-03-28T15:52:11.546Z,102057.88
2019-03-28T15:57:15.368Z,102052.98
2019-03-28T16:02:20.367Z,102057.88
2019-03-28T16:07:23.046Z,102054.98
2019-03-28T16:12:29.195Z,102055.33
2019-03-28T16:17:31.781Z,102052.16
2019-03-28T16:22:34.427Z,102056.63
2019-03-28T16:27:37.083Z,102060.21
2019-03-28T16:32:39.786Z,102053.85
2019-03-28T16:37:42.540Z,102057.47
2019-03-28T16:42:45.179Z,102060.44
2019-03-28T16:47:47.791Z,102065.80
2019-03-28T16:52:50.449Z,102063.53
2019-03-28T16:57:53.856Z,102071.00
2019-03-28T17:02:57.774Z,102060.97
2019-03-28T17:08:03.312Z,102063.32
2019-03-28T17:13:06.094Z,102057.61
2019-03-28T17:18:10.915Z,102057.23
2019-03-28T17:23:13.656Z,102063.75
2019-03-28T17:28:16.294Z,102067.48
2019-03-28T17:33:18.949Z,102079.80
2019-03-28T17:38:23.287Z,102080.47
2019-03-28T17:43:28.614Z,102080.17
2019-03-28T17:48:32.061Z,102086.98
2019-03-28T17:53:35.420Z,102090.63
2019-03-28T17:58:38.840Z,102094.20
2019-03-28T18:03:42.398Z,102097.41
2019-03-28T18:08:46.049Z,102107.34
2019-03-28T18:13:49.493Z,102108.33
2019-03-28T18:18:52.594Z,102118.95
2019-03-28T18:23:56.059Z,102122.70
2019-03-28T18:28:59.378Z,102131.28
2019-03-28T18:34:02.835Z,102133.79
2019-03-28T18:39:07.063Z,102130.12
2019-03-28T18:44:10.732Z,102135.84
2019-03-28T18:49:15.804Z,102133.21
2019-03-28T18:54:21.309Z,102138.40
2019-03-28T18:59:24.307Z,102145.83
2019-03-28T19:04:30.603Z,102152.81
2019-03-28T19:09:35.002Z,102157.00
2019-03-28T19:14:37.631Z,102162.00
2019-03-28T19:19:40.202Z,102167.06
2019-03-28T19:24:42.978Z,102163.70
2019-03-28T19:29:48.392Z,102168.05
2019-03-28T19:34:52.380Z,102164.02
2019-03-28T19:39:57.030Z,102164.77
2019-03-28T19:44:59.728Z,102162.70
2019-03-28T19:50:02.500Z,102151.91
2019-03-28T19:55:06.482Z,102153.02
2019-03-28T20:00:10.663Z,102143.25
2019-03-28T20:05:13.616Z,102148.05
2019-03-28T20:10:17.731Z,102160.04
2019-03-28T20:15:20.849Z,102150.55
2019-03-28T20:20:23.632Z,102158.23
2019-03-28T20:25:26.297Z,102165.17
2019-03-28T20:30:28.807Z,102170.51
2019-03-28T20:35:32.589Z,102162.05
2019-03-28T20:40:35.232Z,102165.81
2019-03-28T20:45:37.882Z,102165.99
2019-03-28T20:50:40.593Z,102167.22
2019-03-28T20:55:43.330Z,102171.25
2019-03-28T21:00:47.113Z,102171.65
2019-03-28T21:05:49.849Z,102171.53
2019-03-28T21:10:52.618Z,102173.51
2019-03-28T21:15:55.220Z,102181.97
2019-03-28T21:20:59.735Z,102183.19
2019-03-28T21:26:02.363Z,102180.28
2019-03-28T21:31:05.006Z,102185.66
2019-03-28T21:36:07.492Z,102184.34
2019-03-28T21:41:10.175Z,102180.77
2019-03-28T21:46:12.794Z,102175.88
2019-03-28T21:51:15.430Z,102173.34
2019-03-28T21:56:18.053Z,102171.94
2019-03-28T22:01:20.631Z,102162.95
2019-03-28T22:06:23.411Z,102160.57
2019-03-28T22:11:26.221Z,102162.58
2019-03-28T22:16:28.782Z,102157.95
2019-03-28T22:21:31.408Z,102158.73
2019-03-28T22:26:34.045Z,102161.15
2019-03-28T22:31:36.626Z,102156.05
2019-03-28T22:36:39.311Z,102160.86
2019-03-28T22:41:41.838Z,102165.45
2019-03-28T22:46:44.509Z,102165.53
2019-03-28T22:51:47.189Z,102159.70
2019-03-28T22:56:50.025Z,102147.05
2019-03-28T23:01:52.913Z,102154.45
2019-03-28T23:06:55.516Z,102155.77
2019-03-28T23:12:00.469Z,102160.93
2019-03-28T23:17:03.164Z,102158.30
2019-03-28T23:22:05.758Z,102159.13
2019-03-28T23:27:08.468Z,102157.60
2019-03-28T23:32:11.083Z,102164.17
2019-03-28T23:37:24.177Z,102164.45
2019-03-28T23:42:19.841Z,102165.77
2019-03-28T23:47:22.436Z,102167.17
2019-03-28T23:52:25.083Z,102169.55
2019-03-28T23:57:28.798Z,102178.27
